LIC0268 GCXO-LEPA
Flight info
| Callsign | LIC0268 |
|---|---|
| Flight time | 2h 36m |
| Altitude | 36000 |
| Route | KORAL UG5 SONSO UN871 ESS/N0444F380 UN871 OSDAM UM985 BARPA M985 PIMOS M445 RIXUR N851 RUXET |
| Aircraft | A320/M-SDE3FGHIRWY/LB1 |
Departure
| Time | 2026-05-04 12:01 |
|---|---|
| Airport | Tenerife Norte-Ciudad de La Laguna Airport (GCXO) |
Arrival
| Time | 2026-05-04 14:37 |
|---|---|
| Airport | Palma de Mallorca Airport (LEPA) |
| Time | Latitude | Longitude | Altitude | Speed | Heading |
|---|---|---|---|---|---|
| 2026-05-04 11:38 | 28.48668 | -16.34630 | 2070 ft | 0 kts | 21° |
| 2026-05-04 11:51 | 28.48667 | -16.34630 | 2070 ft | 2 kts | 21° |
| 2026-05-04 11:51 | 28.48643 | -16.34640 | 2070 ft | 4 kts | 19° |
| 2026-05-04 11:51 | 28.48617 | -16.34650 | 2071 ft | 4 kts | 16° |
| 2026-05-04 11:52 | 28.48591 | -16.34657 | 2071 ft | 4 kts | 9° |
| 2026-05-04 11:52 | 28.48564 | -16.34660 | 2072 ft | 4 kts | 349° |
| 2026-05-04 11:52 | 28.48547 | -16.34650 | 2072 ft | 2 kts | 290° |
| 2026-05-04 11:52 | 28.48545 | -16.34644 | 2071 ft | 1 kts | 290° |
| 2026-05-04 11:56 | 28.48545 | -16.34646 | 2071 ft | 2 kts | 290° |
| 2026-05-04 11:56 | 28.48558 | -16.34684 | 2073 ft | 8 kts | 290° |
| 2026-05-04 11:56 | 28.48581 | -16.34755 | 2075 ft | 11 kts | 290° |
| 2026-05-04 11:56 | 28.48614 | -16.34851 | 2081 ft | 15 kts | 291° |
| 2026-05-04 11:57 | 28.48658 | -16.34979 | 2084 ft | 21 kts | 292° |
| 2026-05-04 11:57 | 28.48712 | -16.35142 | 2081 ft | 25 kts | 290° |
| 2026-05-04 11:57 | 28.48768 | -16.35315 | 2076 ft | 24 kts | 290° |
| 2026-05-04 11:57 | 28.48818 | -16.35467 | 2073 ft | 20 kts | 290° |
| 2026-05-04 11:58 | 28.48834 | -16.35514 | 2071 ft | 0 kts | 291° |
| 2026-05-04 11:58 | 28.48839 | -16.35529 | 2071 ft | 7 kts | 291° |
| 2026-05-04 11:58 | 28.48868 | -16.35614 | 2069 ft | 16 kts | 288° |
| 2026-05-04 11:59 | 28.48854 | -16.35723 | 2068 ft | 13 kts | 231° |
| 2026-05-04 11:59 | 28.48781 | -16.35690 | 2072 ft | 14 kts | 122° |
| 2026-05-04 11:59 | 28.48749 | -16.35608 | 2072 ft | 0 kts | 111° |
| 2026-05-04 12:00 | 28.48745 | -16.35598 | 2075 ft | 16 kts | 112° |
| 2026-05-04 12:00 | 28.48592 | -16.35138 | 2088 ft | 103 kts | 110° |
| 2026-05-04 12:00 | 28.48255 | -16.34115 | 2066 ft | 170 kts | 110° |
| 2026-05-04 12:00 | 28.47822 | -16.32778 | 2553 ft | 190 kts | 109° |
| 2026-05-04 12:01 | 28.47325 | -16.31285 | 3041 ft | 219 kts | 109° |
| 2026-05-04 12:01 | 28.46691 | -16.29556 | 3599 ft | 253 kts | 114° |
| 2026-05-04 12:02 | 28.41555 | -16.17633 | 9609 ft | 303 kts | 117° |
| 2026-05-04 12:03 | 28.40648 | -16.15428 | 10451 ft | 316 kts | 118° |
| 2026-05-04 12:03 | 28.39681 | -16.13076 | 10898 ft | 340 kts | 117° |
| 2026-05-04 12:03 | 28.38888 | -16.10458 | 11475 ft | 361 kts | 100° |
| 2026-05-04 12:03 | 28.38948 | -16.07583 | 12275 ft | 371 kts | 77° |
| 2026-05-04 12:04 | 28.39937 | -16.04867 | 13103 ft | 376 kts | 54° |
| 2026-05-04 12:04 | 28.41736 | -16.02721 | 13937 ft | 376 kts | 33° |
| 2026-05-04 12:04 | 28.43832 | -16.00904 | 14706 ft | 384 kts | 41° |
| 2026-05-04 12:04 | 28.45403 | -15.98440 | 15459 ft | 394 kts | 60° |
| 2026-05-04 12:05 | 28.46523 | -15.95570 | 16253 ft | 400 kts | 69° |
| 2026-05-04 12:05 | 28.47431 | -15.92555 | 17022 ft | 405 kts | 71° |
| 2026-05-04 12:05 | 28.48308 | -15.89490 | 17779 ft | 410 kts | 71° |
| 2026-05-04 12:05 | 28.49265 | -15.86409 | 18512 ft | 415 kts | 69° |
| 2026-05-04 12:06 | 28.50333 | -15.83331 | 19160 ft | 420 kts | 66° |
| 2026-05-04 12:06 | 28.51485 | -15.80297 | 19801 ft | 425 kts | 65° |
| 2026-05-04 12:06 | 28.52719 | -15.77219 | 20455 ft | 430 kts | 64° |
| 2026-05-04 12:06 | 28.53986 | -15.74122 | 21101 ft | 435 kts | 64° |
| 2026-05-04 12:07 | 28.55267 | -15.70977 | 21748 ft | 440 kts | 64° |
| 2026-05-04 12:07 | 28.56547 | -15.67789 | 22396 ft | 445 kts | 65° |
| 2026-05-04 12:07 | 28.57827 | -15.64556 | 23033 ft | 450 kts | 65° |
| 2026-05-04 12:07 | 28.59097 | -15.61315 | 23624 ft | 456 kts | 65° |
| 2026-05-04 12:08 | 28.60390 | -15.57995 | 24125 ft | 461 kts | 65° |
| 2026-05-04 12:08 | 28.61698 | -15.54629 | 24619 ft | 466 kts | 65° |
| 2026-05-04 12:08 | 28.63019 | -15.51233 | 25101 ft | 470 kts | 65° |
| 2026-05-04 12:08 | 28.64336 | -15.47855 | 25595 ft | 474 kts | 65° |
| 2026-05-04 12:09 | 28.65680 | -15.44411 | 26075 ft | 478 kts | 65° |
| 2026-05-04 12:09 | 28.67039 | -15.40926 | 26537 ft | 482 kts | 65° |
| 2026-05-04 12:09 | 28.68409 | -15.37413 | 26991 ft | 486 kts | 65° |
| 2026-05-04 12:09 | 28.69785 | -15.33875 | 27435 ft | 490 kts | 65° |
| 2026-05-04 12:10 | 28.70700 | -15.31518 | 27731 ft | 493 kts | 65° |
| 2026-05-04 12:10 | 28.72091 | -15.27934 | 28168 ft | 497 kts | 65° |
| 2026-05-04 12:10 | 28.73495 | -15.24312 | 28589 ft | 501 kts | 65° |
| 2026-05-04 12:10 | 28.74906 | -15.20666 | 29007 ft | 505 kts | 66° |
| 2026-05-04 12:11 | 28.76794 | -15.15782 | 29547 ft | 510 kts | 66° |
| 2026-05-04 12:11 | 28.77763 | -15.13278 | 29805 ft | 512 kts | 66° |
| 2026-05-04 12:11 | 28.79207 | -15.09542 | 30185 ft | 516 kts | 66° |
| 2026-05-04 12:11 | 28.80638 | -15.05833 | 30501 ft | 519 kts | 66° |
| 2026-05-04 12:12 | 28.82096 | -15.02050 | 30816 ft | 522 kts | 66° |
| 2026-05-04 12:12 | 28.83567 | -14.98232 | 31112 ft | 526 kts | 66° |
| 2026-05-04 12:12 | 28.85044 | -14.94397 | 31416 ft | 529 kts | 66° |
| 2026-05-04 12:12 | 28.86525 | -14.90544 | 31707 ft | 531 kts | 66° |
| 2026-05-04 12:13 | 28.87991 | -14.86720 | 31987 ft | 534 kts | 66° |
| 2026-05-04 12:14 | 28.98407 | -14.59466 | 34596 ft | 536 kts | 66° |
| 2026-05-04 12:15 | 28.99893 | -14.55556 | 34951 ft | 535 kts | 66° |
| 2026-05-04 12:15 | 29.01379 | -14.51649 | 35323 ft | 534 kts | 66° |
| 2026-05-04 12:15 | 29.02843 | -14.47796 | 35662 ft | 534 kts | 65° |
| 2026-05-04 12:15 | 29.04321 | -14.43904 | 36021 ft | 534 kts | 66° |
| 2026-05-04 12:16 | 29.07276 | -14.36125 | 36120 ft | 529 kts | 66° |
| 2026-05-04 12:16 | 29.10196 | -14.28415 | 36118 ft | 528 kts | 66° |
| 2026-05-04 12:17 | 29.13096 | -14.20727 | 36108 ft | 528 kts | 66° |
| 2026-05-04 12:17 | 29.15996 | -14.13012 | 36122 ft | 527 kts | 65° |
| 2026-05-04 12:18 | 29.18870 | -14.05353 | 36119 ft | 527 kts | 65° |
| 2026-05-04 12:18 | 29.21766 | -13.97636 | 36122 ft | 527 kts | 65° |
| 2026-05-04 12:19 | 29.24660 | -13.89914 | 36120 ft | 527 kts | 66° |
| 2026-05-04 12:19 | 29.27549 | -13.82181 | 36117 ft | 527 kts | 65° |
| 2026-05-04 12:20 | 29.30406 | -13.74511 | 36120 ft | 527 kts | 65° |
| 2026-05-04 12:20 | 29.33275 | -13.66780 | 36121 ft | 527 kts | 66° |
| 2026-05-04 12:21 | 29.36147 | -13.59039 | 36126 ft | 526 kts | 65° |
| 2026-05-04 12:21 | 29.38995 | -13.51357 | 36125 ft | 526 kts | 66° |
| 2026-05-04 12:22 | 29.41853 | -13.43609 | 36126 ft | 526 kts | 65° |
| 2026-05-04 12:22 | 29.44710 | -13.35878 | 36149 ft | 526 kts | 65° |
| 2026-05-04 12:23 | 29.47557 | -13.28130 | 36138 ft | 526 kts | 65° |
| 2026-05-04 12:23 | 29.50403 | -13.20376 | 36132 ft | 526 kts | 65° |
| 2026-05-04 12:24 | 29.53224 | -13.12678 | 36128 ft | 526 kts | 65° |
| 2026-05-04 12:24 | 29.56066 | -13.04905 | 36126 ft | 526 kts | 65° |
| 2026-05-04 12:25 | 29.58883 | -12.97187 | 36129 ft | 526 kts | 65° |
| 2026-05-04 12:25 | 29.61715 | -12.89426 | 36131 ft | 526 kts | 65° |
| 2026-05-04 12:26 | 29.64539 | -12.81654 | 36127 ft | 526 kts | 66° |
| 2026-05-04 12:26 | 29.67333 | -12.73930 | 36116 ft | 525 kts | 65° |
| 2026-05-04 12:27 | 29.70149 | -12.66150 | 36118 ft | 525 kts | 65° |
| 2026-05-04 12:27 | 29.73023 | -12.58463 | 36121 ft | 523 kts | 59° |
| 2026-05-04 12:28 | 29.76929 | -12.51433 | 36121 ft | 519 kts | 52° |
| 2026-05-04 12:28 | 29.80982 | -12.44606 | 36152 ft | 519 kts | 52° |
| 2026-05-04 12:29 | 29.85057 | -12.37714 | 36134 ft | 519 kts | 52° |
| 2026-05-04 12:29 | 29.89097 | -12.30859 | 36128 ft | 519 kts | 52° |
| 2026-05-04 12:30 | 29.93155 | -12.23953 | 36125 ft | 519 kts | 52° |
| 2026-05-04 12:30 | 29.97183 | -12.17097 | 36117 ft | 519 kts | 52° |
| 2026-05-04 12:31 | 30.01225 | -12.10206 | 36116 ft | 519 kts | 52° |
| 2026-05-04 12:31 | 30.05286 | -12.03309 | 36108 ft | 518 kts | 51° |
| 2026-05-04 12:32 | 30.11383 | -11.93021 | 36118 ft | 518 kts | 51° |
| 2026-05-04 12:33 | 30.15454 | -11.86120 | 36113 ft | 518 kts | 51° |
| 2026-05-04 12:33 | 30.19485 | -11.79265 | 36112 ft | 518 kts | 51° |
| 2026-05-04 12:34 | 30.23545 | -11.72355 | 36106 ft | 518 kts | 51° |
| 2026-05-04 12:34 | 30.27569 | -11.65499 | 36105 ft | 517 kts | 51° |
| 2026-05-04 12:35 | 30.31625 | -11.58593 | 36103 ft | 517 kts | 51° |
| 2026-05-04 12:35 | 30.35672 | -11.51677 | 36102 ft | 517 kts | 52° |
| 2026-05-04 12:36 | 30.39675 | -11.44816 | 36102 ft | 517 kts | 52° |
| 2026-05-04 12:36 | 30.43708 | -11.37899 | 36102 ft | 517 kts | 52° |
| 2026-05-04 12:37 | 30.47740 | -11.30964 | 36124 ft | 517 kts | 52° |
| 2026-05-04 12:37 | 30.51734 | -11.24065 | 36116 ft | 517 kts | 52° |
| 2026-05-04 12:38 | 30.55757 | -11.17133 | 36112 ft | 516 kts | 52° |
| 2026-05-04 12:38 | 30.59750 | -11.10238 | 36100 ft | 516 kts | 52° |
| 2026-05-04 12:39 | 30.63760 | -11.03293 | 36102 ft | 516 kts | 52° |
| 2026-05-04 12:39 | 30.67754 | -10.96351 | 36093 ft | 516 kts | 52° |
| 2026-05-04 12:40 | 30.71724 | -10.89461 | 36099 ft | 516 kts | 52° |
| 2026-05-04 12:40 | 30.75718 | -10.82523 | 36092 ft | 516 kts | 52° |
| 2026-05-04 12:41 | 30.79707 | -10.75569 | 36117 ft | 515 kts | 52° |
| 2026-05-04 12:41 | 30.83662 | -10.68662 | 36104 ft | 515 kts | 52° |
| 2026-05-04 12:42 | 30.87635 | -10.61716 | 36095 ft | 514 kts | 52° |
| 2026-05-04 12:42 | 30.91593 | -10.54778 | 36090 ft | 513 kts | 52° |
| 2026-05-04 12:43 | 30.95520 | -10.47879 | 36086 ft | 513 kts | 52° |
| 2026-05-04 12:43 | 30.99473 | -10.40926 | 36087 ft | 513 kts | 52° |
| 2026-05-04 12:44 | 31.03390 | -10.34029 | 36084 ft | 512 kts | 52° |
| 2026-05-04 12:44 | 31.07326 | -10.27090 | 36066 ft | 512 kts | 52° |
| 2026-05-04 12:45 | 31.11234 | -10.20177 | 36067 ft | 512 kts | 52° |
| 2026-05-04 12:45 | 31.15162 | -10.13215 | 36092 ft | 512 kts | 53° |
| 2026-05-04 12:46 | 31.19054 | -10.06307 | 36081 ft | 511 kts | 53° |
| 2026-05-04 12:46 | 31.22964 | -9.99356 | 36075 ft | 510 kts | 53° |
| 2026-05-04 12:47 | 31.26869 | -9.92405 | 36073 ft | 510 kts | 53° |
| 2026-05-04 12:47 | 31.30741 | -9.85488 | 36068 ft | 510 kts | 53° |
| 2026-05-04 12:48 | 31.34635 | -9.78540 | 36063 ft | 510 kts | 53° |
| 2026-05-04 12:48 | 31.38601 | -9.71737 | 36064 ft | 505 kts | 46° |
| 2026-05-04 12:49 | 31.43668 | -9.66207 | 36091 ft | 491 kts | 28° |
| 2026-05-04 12:49 | 31.49436 | -9.61998 | 36080 ft | 488 kts | 25° |
| 2026-05-04 12:50 | 31.55217 | -9.57830 | 36070 ft | 488 kts | 25° |
| 2026-05-04 12:50 | 31.60969 | -9.53666 | 36069 ft | 488 kts | 25° |
| 2026-05-04 12:51 | 31.66753 | -9.49477 | 36068 ft | 487 kts | 25° |
| 2026-05-04 12:51 | 31.72535 | -9.45293 | 36099 ft | 488 kts | 25° |
| 2026-05-04 12:52 | 31.78274 | -9.41129 | 36092 ft | 487 kts | 25° |
| 2026-05-04 12:52 | 31.84049 | -9.36936 | 36088 ft | 487 kts | 25° |
| 2026-05-04 12:53 | 31.89791 | -9.32757 | 36080 ft | 487 kts | 25° |
| 2026-05-04 12:53 | 31.95554 | -9.28551 | 36079 ft | 487 kts | 25° |
| 2026-05-04 12:54 | 32.01322 | -9.24341 | 36111 ft | 487 kts | 26° |
| 2026-05-04 12:54 | 32.07050 | -9.20159 | 36099 ft | 486 kts | 26° |
| 2026-05-04 12:55 | 32.12807 | -9.15947 | 36087 ft | 486 kts | 26° |
| 2026-05-04 12:55 | 32.18523 | -9.11755 | 36089 ft | 485 kts | 26° |
| 2026-05-04 12:56 | 32.24261 | -9.07540 | 36082 ft | 485 kts | 26° |
| 2026-05-04 12:56 | 32.30013 | -9.03315 | 36112 ft | 485 kts | 26° |
| 2026-05-04 12:57 | 32.35748 | -8.99092 | 36100 ft | 485 kts | 26° |
| 2026-05-04 12:57 | 32.41452 | -8.94878 | 36097 ft | 485 kts | 26° |
| 2026-05-04 12:58 | 32.47188 | -8.90635 | 36088 ft | 485 kts | 26° |
| 2026-05-04 12:58 | 32.52881 | -8.86419 | 36090 ft | 485 kts | 26° |
| 2026-05-04 12:59 | 32.57643 | -8.82893 | 36084 ft | 485 kts | 26° |
| 2026-05-04 12:59 | 32.63376 | -8.78647 | 36099 ft | 485 kts | 26° |
| 2026-05-04 13:00 | 32.70037 | -8.73697 | 36091 ft | 485 kts | 26° |
| 2026-05-04 13:00 | 32.74802 | -8.70145 | 36089 ft | 486 kts | 26° |
| 2026-05-04 13:01 | 32.80532 | -8.65867 | 36093 ft | 486 kts | 26° |
| 2026-05-04 13:01 | 32.86241 | -8.61613 | 36131 ft | 486 kts | 26° |
| 2026-05-04 13:02 | 32.91981 | -8.57328 | 36107 ft | 486 kts | 26° |
| 2026-05-04 13:02 | 32.97692 | -8.53052 | 36099 ft | 487 kts | 26° |
| 2026-05-04 13:03 | 33.03452 | -8.48727 | 36098 ft | 487 kts | 26° |
| 2026-05-04 13:03 | 33.09156 | -8.44437 | 36102 ft | 487 kts | 26° |
| 2026-05-04 13:04 | 33.14904 | -8.40116 | 36090 ft | 488 kts | 26° |
| 2026-05-04 13:04 | 33.20622 | -8.35805 | 36096 ft | 488 kts | 26° |
| 2026-05-04 13:05 | 33.26360 | -8.31475 | 36089 ft | 487 kts | 26° |
| 2026-05-04 13:05 | 33.32115 | -8.27150 | 36094 ft | 487 kts | 26° |
| 2026-05-04 13:06 | 33.37824 | -8.22855 | 36103 ft | 487 kts | 26° |
| 2026-05-04 13:06 | 33.43576 | -8.18514 | 36131 ft | 488 kts | 26° |
| 2026-05-04 13:07 | 33.49332 | -8.14157 | 36117 ft | 488 kts | 26° |
| 2026-05-04 13:07 | 33.55058 | -8.09820 | 36101 ft | 489 kts | 26° |
| 2026-05-04 13:08 | 33.60795 | -8.05465 | 36101 ft | 489 kts | 26° |
| 2026-05-04 13:08 | 33.66524 | -8.01108 | 36103 ft | 489 kts | 26° |
| 2026-05-04 13:09 | 33.72283 | -7.96718 | 36129 ft | 490 kts | 26° |
| 2026-05-04 13:09 | 33.78016 | -7.92348 | 36118 ft | 490 kts | 26° |
| 2026-05-04 13:10 | 33.83789 | -7.87942 | 36110 ft | 490 kts | 26° |
| 2026-05-04 13:10 | 33.89550 | -7.83533 | 36107 ft | 490 kts | 26° |
| 2026-05-04 13:11 | 33.95284 | -7.79143 | 36108 ft | 490 kts | 26° |
| 2026-05-04 13:11 | 34.01054 | -7.74712 | 36139 ft | 491 kts | 26° |
| 2026-05-04 13:12 | 34.06776 | -7.70309 | 36125 ft | 491 kts | 26° |
| 2026-05-04 13:12 | 34.12546 | -7.65874 | 36123 ft | 491 kts | 26° |
| 2026-05-04 13:13 | 34.18304 | -7.61425 | 36120 ft | 491 kts | 26° |
| 2026-05-04 13:13 | 34.24034 | -7.56999 | 36107 ft | 491 kts | 26° |
| 2026-05-04 13:14 | 34.29805 | -7.52524 | 36134 ft | 491 kts | 26° |
| 2026-05-04 13:14 | 34.35542 | -7.48077 | 36123 ft | 491 kts | 26° |
| 2026-05-04 13:15 | 34.41308 | -7.43613 | 36116 ft | 491 kts | 26° |
| 2026-05-04 13:15 | 34.47066 | -7.39130 | 36113 ft | 492 kts | 26° |
| 2026-05-04 13:16 | 34.52789 | -7.34660 | 36143 ft | 492 kts | 26° |
| 2026-05-04 13:16 | 34.58560 | -7.30159 | 36131 ft | 492 kts | 26° |
| 2026-05-04 13:17 | 34.64326 | -7.25650 | 36123 ft | 492 kts | 26° |
| 2026-05-04 13:17 | 34.70061 | -7.21163 | 36119 ft | 492 kts | 26° |
| 2026-05-04 13:18 | 34.75802 | -7.16666 | 36118 ft | 492 kts | 26° |
| 2026-05-04 13:18 | 34.81582 | -7.12132 | 36144 ft | 493 kts | 26° |
| 2026-05-04 13:19 | 34.87309 | -7.07618 | 36135 ft | 493 kts | 26° |
| 2026-05-04 13:19 | 34.93079 | -7.03066 | 36126 ft | 493 kts | 26° |
| 2026-05-04 13:20 | 34.98851 | -6.98509 | 36120 ft | 493 kts | 26° |
| 2026-05-04 13:20 | 35.04574 | -6.93987 | 36107 ft | 493 kts | 26° |
| 2026-05-04 13:21 | 35.10336 | -6.89426 | 36143 ft | 492 kts | 26° |
| 2026-05-04 13:21 | 35.16050 | -6.84885 | 36133 ft | 492 kts | 26° |
| 2026-05-04 13:22 | 35.21806 | -6.80300 | 36123 ft | 492 kts | 26° |
| 2026-05-04 13:22 | 35.27563 | -6.75718 | 36118 ft | 493 kts | 26° |
| 2026-05-04 13:23 | 35.33100 | -6.70787 | 36137 ft | 502 kts | 38° |
| 2026-05-04 13:23 | 35.37495 | -6.64007 | 36127 ft | 513 kts | 57° |
| 2026-05-04 13:24 | 35.41079 | -6.56469 | 36114 ft | 513 kts | 56° |
| 2026-05-04 13:24 | 35.44677 | -6.48938 | 36107 ft | 513 kts | 56° |
| 2026-05-04 13:25 | 35.50308 | -6.37719 | 36102 ft | 513 kts | 54° |
| 2026-05-04 13:25 | 35.54116 | -6.30348 | 36094 ft | 513 kts | 54° |
| 2026-05-04 13:26 | 35.57881 | -6.22941 | 36092 ft | 514 kts | 55° |
| 2026-05-04 13:26 | 35.61637 | -6.15452 | 36124 ft | 514 kts | 55° |
| 2026-05-04 13:27 | 35.65390 | -6.07954 | 36092 ft | 514 kts | 55° |
| 2026-05-04 13:27 | 35.69135 | -6.00497 | 36087 ft | 514 kts | 55° |
| 2026-05-04 13:28 | 35.72885 | -5.92997 | 36086 ft | 514 kts | 56° |
| 2026-05-04 13:28 | 35.76115 | -5.85098 | 36086 ft | 516 kts | 62° |
| 2026-05-04 13:29 | 35.79241 | -5.77132 | 36084 ft | 516 kts | 62° |
| 2026-05-04 13:29 | 35.82351 | -5.69202 | 36069 ft | 517 kts | 62° |
| 2026-05-04 13:30 | 35.85500 | -5.61222 | 36056 ft | 517 kts | 61° |
| 2026-05-04 13:30 | 35.88721 | -5.53289 | 36069 ft | 517 kts | 61° |
| 2026-05-04 13:31 | 35.91945 | -5.45410 | 36074 ft | 517 kts | 61° |
| 2026-05-04 13:31 | 35.95160 | -5.37453 | 36080 ft | 517 kts | 62° |
| 2026-05-04 13:32 | 35.98350 | -5.29467 | 36084 ft | 517 kts | 62° |
| 2026-05-04 13:32 | 36.01528 | -5.21536 | 36077 ft | 517 kts | 61° |
| 2026-05-04 13:33 | 36.04837 | -5.13630 | 36052 ft | 517 kts | 60° |
| 2026-05-04 13:33 | 36.08191 | -5.05758 | 36050 ft | 517 kts | 60° |
| 2026-05-04 13:34 | 36.11496 | -4.97905 | 36046 ft | 517 kts | 60° |
| 2026-05-04 13:34 | 36.14969 | -4.90103 | 36060 ft | 514 kts | 52° |
| 2026-05-04 13:35 | 36.22032 | -4.80334 | 36041 ft | 508 kts | 41° |
| 2026-05-04 13:36 | 36.26920 | -4.74055 | 36030 ft | 508 kts | 41° |
| 2026-05-04 13:36 | 36.31817 | -4.67723 | 36025 ft | 508 kts | 41° |
| 2026-05-04 13:37 | 36.36717 | -4.61354 | 36013 ft | 508 kts | 41° |
| 2026-05-04 13:37 | 36.41570 | -4.55046 | 36038 ft | 508 kts | 41° |
| 2026-05-04 13:38 | 36.46459 | -4.48675 | 36026 ft | 509 kts | 41° |
| 2026-05-04 13:38 | 36.51349 | -4.42304 | 36009 ft | 509 kts | 41° |
| 2026-05-04 13:39 | 36.56212 | -4.35967 | 36004 ft | 509 kts | 41° |
| 2026-05-04 13:39 | 36.61097 | -4.29576 | 36001 ft | 509 kts | 42° |
| 2026-05-04 13:40 | 36.65969 | -4.23176 | 36001 ft | 509 kts | 42° |
| 2026-05-04 13:40 | 36.70859 | -4.16758 | 36014 ft | 509 kts | 42° |
| 2026-05-04 13:41 | 36.75704 | -4.10369 | 36002 ft | 510 kts | 42° |
| 2026-05-04 13:41 | 36.80582 | -4.03920 | 35998 ft | 510 kts | 41° |
| 2026-05-04 13:42 | 36.87892 | -3.94245 | 35996 ft | 511 kts | 42° |
| 2026-05-04 13:42 | 36.92776 | -3.87784 | 36004 ft | 510 kts | 42° |
| 2026-05-04 13:43 | 36.97625 | -3.81346 | 36006 ft | 512 kts | 42° |
| 2026-05-04 13:43 | 37.02513 | -3.74838 | 36035 ft | 512 kts | 42° |
| 2026-05-04 13:44 | 37.07392 | -3.68327 | 36045 ft | 512 kts | 43° |
| 2026-05-04 13:44 | 37.11762 | -3.61286 | 36047 ft | 519 kts | 58° |
| 2026-05-04 13:45 | 37.15027 | -3.53196 | 36052 ft | 520 kts | 62° |
| 2026-05-04 13:45 | 37.18246 | -3.45074 | 36037 ft | 520 kts | 62° |
| 2026-05-04 13:46 | 37.21459 | -3.36931 | 36038 ft | 520 kts | 63° |
| 2026-05-04 13:46 | 37.24660 | -3.28787 | 36015 ft | 520 kts | 63° |
| 2026-05-04 13:47 | 37.27837 | -3.20690 | 35977 ft | 520 kts | 63° |
| 2026-05-04 13:47 | 37.31021 | -3.12542 | 35984 ft | 520 kts | 63° |
| 2026-05-04 13:48 | 37.34206 | -3.04371 | 35962 ft | 520 kts | 63° |
| 2026-05-04 13:48 | 37.37365 | -2.96252 | 35973 ft | 520 kts | 63° |
| 2026-05-04 13:49 | 37.40544 | -2.88078 | 35975 ft | 520 kts | 63° |
| 2026-05-04 13:49 | 37.43709 | -2.79911 | 35975 ft | 519 kts | 63° |
| 2026-05-04 13:50 | 37.46331 | -2.73113 | 36003 ft | 519 kts | 63° |
| 2026-05-04 13:50 | 37.49484 | -2.64912 | 35976 ft | 519 kts | 63° |
| 2026-05-04 13:51 | 37.52630 | -2.56711 | 35979 ft | 518 kts | 63° |
| 2026-05-04 13:51 | 37.55774 | -2.48519 | 35978 ft | 518 kts | 63° |
| 2026-05-04 13:52 | 37.60454 | -2.36278 | 35973 ft | 518 kts | 64° |
| 2026-05-04 13:53 | 37.63578 | -2.28058 | 35946 ft | 518 kts | 64° |
| 2026-05-04 13:53 | 37.66678 | -2.19890 | 35959 ft | 518 kts | 64° |
| 2026-05-04 13:54 | 37.71346 | -2.07576 | 35976 ft | 518 kts | 64° |
| 2026-05-04 13:55 | 37.75983 | -1.95280 | 35935 ft | 517 kts | 64° |
| 2026-05-04 13:55 | 37.80598 | -1.82989 | 35916 ft | 517 kts | 64° |
| 2026-05-04 13:56 | 37.83684 | -1.74746 | 35910 ft | 517 kts | 64° |
| 2026-05-04 13:57 | 37.88297 | -1.62385 | 35913 ft | 517 kts | 65° |
| 2026-05-04 13:58 | 37.94402 | -1.45936 | 35905 ft | 516 kts | 65° |
| 2026-05-04 13:58 | 37.98966 | -1.33606 | 35908 ft | 516 kts | 65° |
| 2026-05-04 13:59 | 38.02006 | -1.25342 | 35907 ft | 516 kts | 65° |
| 2026-05-04 14:00 | 38.06548 | -1.12931 | 35886 ft | 516 kts | 65° |
| 2026-05-04 14:00 | 38.11060 | -1.00583 | 35910 ft | 516 kts | 65° |
| 2026-05-04 14:01 | 38.14080 | -0.92294 | 35919 ft | 515 kts | 66° |
| 2026-05-04 14:02 | 38.18590 | -0.79869 | 35936 ft | 515 kts | 66° |
| 2026-05-04 14:02 | 38.21570 | -0.71631 | 35955 ft | 515 kts | 66° |
| 2026-05-04 14:03 | 38.24556 | -0.63348 | 35964 ft | 514 kts | 66° |
| 2026-05-04 14:03 | 38.27514 | -0.55059 | 35962 ft | 513 kts | 67° |
| 2026-05-04 14:04 | 38.31561 | -0.42485 | 35956 ft | 513 kts | 70° |
| 2026-05-04 14:04 | 38.34177 | -0.34013 | 35948 ft | 513 kts | 70° |
| 2026-05-04 14:05 | 38.38204 | -0.21428 | 35940 ft | 513 kts | 68° |
| 2026-05-04 14:06 | 38.41041 | -0.13071 | 35937 ft | 513 kts | 68° |
| 2026-05-04 14:06 | 38.43858 | -0.04700 | 35936 ft | 513 kts | 68° |
| 2026-05-04 14:07 | 38.46604 | 0.03649 | 35921 ft | 513 kts | 69° |
| 2026-05-04 14:07 | 38.49300 | 0.12096 | 35930 ft | 512 kts | 69° |
| 2026-05-04 14:08 | 38.51960 | 0.20485 | 35934 ft | 512 kts | 69° |
| 2026-05-04 14:08 | 38.54650 | 0.28935 | 35936 ft | 512 kts | 69° |
| 2026-05-04 14:09 | 38.58695 | 0.41557 | 35925 ft | 512 kts | 69° |
| 2026-05-04 14:10 | 38.62700 | 0.54221 | 35939 ft | 511 kts | 70° |
| 2026-05-04 14:10 | 38.65350 | 0.62665 | 35971 ft | 511 kts | 70° |
| 2026-05-04 14:11 | 38.67298 | 0.71293 | 35955 ft | 505 kts | 85° |
| 2026-05-04 14:11 | 38.68777 | 0.84653 | 35940 ft | 504 kts | 85° |
| 2026-05-04 14:12 | 38.69760 | 0.93546 | 35949 ft | 504 kts | 86° |
| 2026-05-04 14:13 | 38.71217 | 1.06833 | 35958 ft | 504 kts | 86° |
| 2026-05-04 14:13 | 38.72187 | 1.15747 | 35948 ft | 503 kts | 86° |
| 2026-05-04 14:14 | 38.73132 | 1.24568 | 35976 ft | 502 kts | 86° |
| 2026-05-04 14:14 | 38.74529 | 1.37865 | 35987 ft | 501 kts | 86° |
| 2026-05-04 14:15 | 38.76399 | 1.55553 | 34421 ft | 501 kts | 86° |
| 2026-05-04 14:16 | 38.77321 | 1.64381 | 32853 ft | 497 kts | 87° |
| 2026-05-04 14:16 | 38.77772 | 1.68756 | 32081 ft | 494 kts | 87° |
| 2026-05-04 14:17 | 38.78661 | 1.77453 | 30536 ft | 490 kts | 87° |
| 2026-05-04 14:17 | 38.79103 | 1.81791 | 29751 ft | 488 kts | 88° |
| 2026-05-04 14:17 | 38.80383 | 1.90249 | 28249 ft | 486 kts | 74° |
| 2026-05-04 14:18 | 38.81720 | 1.94225 | 27579 ft | 484 kts | 63° |
| 2026-05-04 14:18 | 38.85546 | 2.01236 | 26334 ft | 475 kts | 52° |
| 2026-05-04 14:19 | 38.89551 | 2.07830 | 25153 ft | 467 kts | 51° |
| 2026-05-04 14:19 | 38.91541 | 2.11121 | 24583 ft | 463 kts | 51° |
| 2026-05-04 14:19 | 38.93485 | 2.14350 | 24018 ft | 459 kts | 51° |
| 2026-05-04 14:19 | 38.95431 | 2.17586 | 23428 ft | 457 kts | 51° |
| 2026-05-04 14:20 | 38.97371 | 2.20808 | 22811 ft | 453 kts | 51° |
| 2026-05-04 14:20 | 38.99293 | 2.24000 | 22239 ft | 448 kts | 51° |
| 2026-05-04 14:20 | 39.01188 | 2.27153 | 21656 ft | 444 kts | 51° |
| 2026-05-04 14:21 | 39.04931 | 2.33395 | 20492 ft | 436 kts | 51° |
| 2026-05-04 14:21 | 39.06778 | 2.36477 | 19895 ft | 433 kts | 50° |
| 2026-05-04 14:21 | 39.08618 | 2.39545 | 19298 ft | 431 kts | 50° |
| 2026-05-04 14:21 | 39.10421 | 2.42549 | 18724 ft | 428 kts | 50° |
| 2026-05-04 14:22 | 39.12236 | 2.45574 | 18159 ft | 425 kts | 50° |
| 2026-05-04 14:22 | 39.14008 | 2.48543 | 17936 ft | 410 kts | 50° |
| 2026-05-04 14:22 | 39.15809 | 2.51294 | 17804 ft | 392 kts | 41° |
| 2026-05-04 14:22 | 39.17879 | 2.53430 | 17662 ft | 373 kts | 30° |
| 2026-05-04 14:23 | 39.22111 | 2.57110 | 16937 ft | 362 kts | 30° |
| 2026-05-04 14:23 | 39.24190 | 2.58921 | 16530 ft | 359 kts | 30° |
| 2026-05-04 14:23 | 39.26251 | 2.60719 | 16130 ft | 356 kts | 30° |
| 2026-05-04 14:24 | 39.28299 | 2.62511 | 15745 ft | 353 kts | 31° |
| 2026-05-04 14:24 | 39.30329 | 2.64285 | 15366 ft | 350 kts | 31° |
| 2026-05-04 14:24 | 39.32339 | 2.66039 | 15001 ft | 348 kts | 32° |
| 2026-05-04 14:24 | 39.34338 | 2.67786 | 14620 ft | 345 kts | 32° |
| 2026-05-04 14:25 | 39.36318 | 2.69518 | 14256 ft | 342 kts | 32° |
| 2026-05-04 14:25 | 39.40213 | 2.72930 | 13495 ft | 337 kts | 32° |
| 2026-05-04 14:25 | 39.42132 | 2.74665 | 13071 ft | 336 kts | 38° |
| 2026-05-04 14:26 | 39.43753 | 2.76819 | 12627 ft | 332 kts | 52° |
| 2026-05-04 14:26 | 39.44933 | 2.79361 | 11846 ft | 328 kts | 64° |
| 2026-05-04 14:26 | 39.45962 | 2.81991 | 11073 ft | 326 kts | 64° |
| 2026-05-04 14:26 | 39.46984 | 2.84592 | 10316 ft | 323 kts | 64° |
| 2026-05-04 14:27 | 39.47998 | 2.87171 | 9552 ft | 320 kts | 64° |
| 2026-05-04 14:27 | 39.49003 | 2.89726 | 8737 ft | 316 kts | 64° |
| 2026-05-04 14:27 | 39.49997 | 2.92256 | 7932 ft | 311 kts | 64° |
| 2026-05-04 14:27 | 39.50960 | 2.94715 | 7202 ft | 307 kts | 64° |
| 2026-05-04 14:28 | 39.51889 | 2.97083 | 7020 ft | 281 kts | 64° |
| 2026-05-04 14:28 | 39.52753 | 2.99283 | 6638 ft | 268 kts | 64° |
| 2026-05-04 14:28 | 39.53608 | 3.01379 | 6327 ft | 254 kts | 57° |
| 2026-05-04 14:28 | 39.54771 | 3.02969 | 5981 ft | 242 kts | 33° |
| 2026-05-04 14:29 | 39.57760 | 3.04035 | 5351 ft | 218 kts | 349° |
| 2026-05-04 14:29 | 39.60460 | 3.02495 | 4226 ft | 212 kts | 313° |
| 2026-05-04 14:30 | 39.61528 | 3.01276 | 3947 ft | 200 kts | 311° |
| 2026-05-04 14:30 | 39.62507 | 3.00064 | 3803 ft | 191 kts | 308° |
| 2026-05-04 14:30 | 39.64022 | 2.97405 | 3483 ft | 171 kts | 283° |
| 2026-05-04 14:31 | 39.64221 | 2.95954 | 3344 ft | 158 kts | 266° |
| 2026-05-04 14:31 | 39.63647 | 2.93381 | 3024 ft | 144 kts | 237° |
| 2026-05-04 14:32 | 39.62684 | 2.91334 | 2681 ft | 123 kts | 237° |
| 2026-05-04 14:32 | 39.62253 | 2.90417 | 2524 ft | 115 kts | 238° |
| 2026-05-04 14:32 | 39.61848 | 2.89555 | 2396 ft | 111 kts | 238° |
| 2026-05-04 14:32 | 39.61445 | 2.88699 | 2250 ft | 112 kts | 237° |
| 2026-05-04 14:33 | 39.61048 | 2.87855 | 2094 ft | 106 kts | 240° |
| 2026-05-04 14:33 | 39.60666 | 2.87043 | 1970 ft | 105 kts | 239° |
| 2026-05-04 14:33 | 39.60285 | 2.86234 | 1834 ft | 105 kts | 238° |
| 2026-05-04 14:33 | 39.59906 | 2.85428 | 1691 ft | 105 kts | 237° |
| 2026-05-04 14:34 | 39.59529 | 2.84628 | 1555 ft | 104 kts | 237° |
| 2026-05-04 14:34 | 39.59150 | 2.83823 | 1414 ft | 106 kts | 238° |
| 2026-05-04 14:34 | 39.58751 | 2.82976 | 1266 ft | 112 kts | 238° |
| 2026-05-04 14:34 | 39.58343 | 2.82110 | 1107 ft | 112 kts | 237° |
| 2026-05-04 14:35 | 39.57938 | 2.81253 | 956 ft | 110 kts | 236° |
| 2026-05-04 14:35 | 39.57545 | 2.80418 | 814 ft | 107 kts | 237° |
| 2026-05-04 14:35 | 39.57155 | 2.79591 | 661 ft | 110 kts | 237° |
| 2026-05-04 14:35 | 39.56755 | 2.78753 | 523 ft | 110 kts | 236° |
| 2026-05-04 14:36 | 39.56350 | 2.77904 | 394 ft | 112 kts | 237° |
| 2026-05-04 14:36 | 39.55954 | 2.77036 | 229 ft | 110 kts | 236° |
| 2026-05-04 14:36 | 39.55576 | 2.76190 | 107 ft | 107 kts | 234° |
| 2026-05-04 14:36 | 39.55190 | 2.75406 | 28 ft | 90 kts | 237° |
| 2026-05-04 14:37 | 39.54992 | 2.75003 | 31 ft | 71 kts | 237° |
| 2026-05-04 14:37 | 39.54829 | 2.74627 | 34 ft | 29 kts | 253° |
| 2026-05-04 14:37 | 39.54804 | 2.74382 | 35 ft | 19 kts | 268° |
| 2026-05-04 14:37 | 39.54804 | 2.74368 | 35 ft | 0 kts | 269° |
| 2026-05-04 14:39 | 39.54804 | 2.74360 | 35 ft | 3 kts | 270° |
| 2026-05-04 14:39 | 39.54804 | 2.74311 | 35 ft | 8 kts | 269° |
| 2026-05-04 14:39 | 39.54804 | 2.74213 | 36 ft | 14 kts | 273° |
| 2026-05-04 14:40 | 39.54965 | 2.74015 | 36 ft | 20 kts | 328° |
| 2026-05-04 14:40 | 39.55095 | 2.73915 | 36 ft | 21 kts | 329° |
| 2026-05-04 14:40 | 39.55174 | 2.73846 | 36 ft | 10 kts | 302° |
| 2026-05-04 14:40 | 39.55172 | 2.73752 | 36 ft | 12 kts | 295° |
| 2026-05-04 14:41 | 39.55149 | 2.73635 | 36 ft | 16 kts | 237° |
| 2026-05-04 14:41 | 39.55092 | 2.73530 | 36 ft | 10 kts | 215° |
| 2026-05-04 14:41 | 39.55044 | 2.73541 | 35 ft | 0 kts | 163° |